Time;durP1;ratioP1;P1;durP2;ratioP2;P2;SDS_P1;SDS_P2;PMS_P1;PMS_P2;Temp;Humidity;BMP_temperature;BMP_pressure;BME280_temperature;BME280_humidity;BME280_pressure;Samples;Min_cycle;Max_cycle;Signal;HPM_P1;HPM_P2
2023/01/04 00:02:06;;;;;;;2.67;1.87;;;9.10;99.90;;;;;;4990089;28;20237;-81
2023/01/04 00:04:31;;;;;;;1.57;1.00;;;9.00;99.90;;;;;;5030360;28;20627;-82
2023/01/04 00:06:57;;;;;;;2.80;1.70;;;9.10;99.90;;;;;;5013415;28;20802;-83
2023/01/04 00:09:23;;;;;;;1.23;1.17;;;9.10;99.90;;;;;;5035342;28;20754;-82
2023/01/04 00:11:49;;;;;;;1.23;1.13;;;9.10;99.90;;;;;;5009440;28;20586;-82
2023/01/04 00:14:17;;;;;;;1.60;1.50;;;9.10;99.90;;;;;;5029395;28;20256;-81
2023/01/04 00:16:43;;;;;;;1.23;1.10;;;9.10;99.90;;;;;;4998695;28;20226;-82
2023/01/04 00:19:11;;;;;;;1.60;1.50;;;9.10;99.90;;;;;;5015784;28;20197;-83
2023/01/04 00:21:37;;;;;;;2.37;1.03;;;9.10;99.90;;;;;;5039134;28;20609;-82
2023/01/04 00:24:03;;;;;;;1.80;1.70;;;9.10;99.90;;;;;;5023437;28;20232;-82
2023/01/04 00:26:31;;;;;;;1.70;1.43;;;9.10;99.90;;;;;;5013809;28;20226;-83
2023/01/04 00:29:00;;;;;;;1.17;0.90;;;9.10;99.90;;;;;;5021792;28;20218;-82
2023/01/04 00:31:26;;;;;;;2.40;1.13;;;9.10;99.90;;;;;;5005560;28;20214;-82
2023/01/04 00:33:53;;;;;;;1.77;1.67;;;9.10;99.90;;;;;;5024907;28;20194;-82
2023/01/04 00:36:19;;;;;;;1.90;1.30;;;9.10;99.90;;;;;;5041305;28;20210;-83
2023/01/04 00:38:45;;;;;;;3.57;1.23;;;9.10;99.90;;;;;;5011503;28;20273;-83
2023/01/04 00:41:12;;;;;;;2.37;0.93;;;9.20;99.90;;;;;;4995306;28;20230;-82
2023/01/04 00:43:38;;;;;;;1.33;1.07;;;9.20;99.90;;;;;;5037913;28;20215;-82
2023/01/04 00:46:06;;;;;;;1.00;0.97;;;9.20;99.90;;;;;;5021278;28;20196;-82
2023/01/04 00:48:32;;;;;;;2.43;1.50;;;9.20;99.90;;;;;;5021483;28;20227;-82
2023/01/04 00:50:59;;;;;;;1.60;1.53;;;9.20;99.90;;;;;;5018097;28;20595;-83
2023/01/04 00:53:24;;;;;;;3.17;1.10;;;9.20;99.90;;;;;;5022953;28;20256;-83
2023/01/04 00:55:50;;;;;;;2.03;1.93;;;9.20;99.90;;;;;;5034967;28;20951;-83
2023/01/04 00:58:16;;;;;;;0.90;0.90;;;9.20;99.90;;;;;;4987618;28;20277;-83
2023/01/04 01:00:42;;;;;;;1.50;1.30;;;9.30;99.90;;;;;;4987750;28;20245;-83
2023/01/04 01:03:08;;;;;;;1.27;1.17;;;9.20;99.90;;;;;;5020865;28;20656;-82
2023/01/04 01:05:34;;;;;;;8.93;1.27;;;9.20;99.90;;;;;;5013456;28;20221;-82
2023/01/04 01:10:46;;;;;;;0.90;0.90;;;9.20;99.90;;;;;;5036140;28;20258;-83
2023/01/04 01:13:12;;;;;;;0.40;0.40;;;9.20;99.90;;;;;;4987402;28;20700;-82
2023/01/04 01:15:37;;;;;;;3.07;0.83;;;9.20;99.90;;;;;;5022242;28;20225;-82
2023/01/04 01:18:03;;;;;;;1.13;1.07;;;9.20;99.90;;;;;;5040557;28;20604;-83
2023/01/04 01:20:29;;;;;;;1.07;0.97;;;9.20;99.90;;;;;;4996938;28;20268;-82
2023/01/04 01:22:54;;;;;;;1.43;1.10;;;9.20;99.90;;;;;;5007802;28;20221;-81
2023/01/04 01:25:20;;;;;;;1.80;1.17;;;9.20;99.90;;;;;;5022418;28;20694;-81
2023/01/04 01:27:46;;;;;;;0.60;0.60;;;9.20;99.90;;;;;;5022564;28;20211;-82
2023/01/04 01:30:12;;;;;;;0.60;0.60;;;9.20;99.90;;;;;;5006385;28;20281;-81
2023/01/04 01:32:37;;;;;;;1.10;1.00;;;9.20;99.90;;;;;;5030453;28;20225;-81
2023/01/04 01:35:03;;;;;;;1.43;1.07;;;9.20;99.90;;;;;;5038573;28;20299;-82
2023/01/04 01:37:29;;;;;;;0.73;0.73;;;9.20;99.90;;;;;;5038468;28;20269;-82
2023/01/04 01:39:55;;;;;;;5.40;0.77;;;9.30;99.90;;;;;;5002747;28;20531;-82
2023/01/04 01:42:22;;;;;;;1.33;0.97;;;9.20;99.90;;;;;;5037266;28;20221;-83
2023/01/04 01:45:09;;;;;;;0.63;0.60;;;9.20;99.90;;;;;;5022105;28;20350;-81
2023/01/04 01:47:45;;;;;;;0.33;0.33;;;9.30;99.90;;;;;;5029282;28;20219;-82
2023/01/04 01:50:30;;;;;;;0.60;0.60;;;9.30;99.90;;;;;;5027262;28;20569;-82
2023/01/04 01:52:59;;;;;;;0.63;0.63;;;9.30;99.90;;;;;;5040365;28;20245;-82
2023/01/04 01:55:25;;;;;;;0.77;0.53;;;9.30;99.90;;;;;;5020965;28;20190;-82
2023/01/04 01:57:53;;;;;;;0.40;0.40;;;9.30;99.90;;;;;;5018554;28;20194;-81
2023/01/04 02:00:19;;;;;;;2.50;0.93;;;9.30;99.90;;;;;;5019625;28;20230;-81
2023/01/04 02:03:08;;;;;;;0.77;0.77;;;9.40;99.90;;;;;;5014351;28;20225;-82
2023/01/04 02:05:35;;;;;;;0.50;0.50;;;9.40;99.90;;;;;;5039539;28;20256;-83
2023/01/04 02:08:02;;;;;;;0.80;0.80;;;9.40;99.90;;;;;;5015918;28;20222;-82
2023/01/04 02:10:29;;;;;;;0.50;0.50;;;9.40;99.90;;;;;;5001407;28;20264;-81
2023/01/04 02:12:55;;;;;;;0.43;0.43;;;9.40;99.90;;;;;;5002798;28;20621;-82
2023/01/04 02:15:26;;;;;;;0.40;0.40;;;9.40;99.90;;;;;;5002984;28;20316;-81
2023/01/04 02:17:55;;;;;;;0.47;0.47;;;9.40;99.90;;;;;;5040169;28;20226;-83
2023/01/04 02:20:31;;;;;;;1.43;0.53;;;9.40;99.90;;;;;;5013318;28;20222;-80
2023/01/04 02:23:12;;;;;;;0.67;0.67;;;9.50;99.90;;;;;;5019657;28;20225;-81
2023/01/04 02:25:52;;;;;;;0.50;0.50;;;9.40;99.90;;;;;;5014320;28;20225;-81
2023/01/04 02:28:51;;;;;;;0.33;0.33;;;9.40;99.90;;;;;;5039683;28;20178;-83
2023/01/04 02:32:02;;;;;;;0.40;0.40;;;9.50;99.90;;;;;;5038599;28;20206;-82
2023/01/04 02:34:46;;;;;;;0.40;0.40;;;9.50;99.90;;;;;;4996733;28;20286;-81
2023/01/04 02:37:29;;;;;;;0.37;0.30;;;9.50;99.90;;;;;;5021065;28;20190;-80
2023/01/04 02:39:54;;;;;;;0.40;0.40;;;9.50;99.90;;;;;;5039931;28;20210;-81
2023/01/04 02:45:28;;;;;;;1.07;0.60;;;9.50;99.90;;;;;;5040170;28;20225;-82
2023/01/04 02:50:56;;;;;;;0.40;0.40;;;9.60;99.90;;;;;;5043081;28;20237;-80
2023/01/04 02:53:42;;;;;;;0.60;0.47;;;9.60;99.90;;;;;;5025342;28;20217;-83
2023/01/04 02:56:34;;;;;;;0.60;0.60;;;9.60;99.90;;;;;;5004133;28;20294;-81
2023/01/04 02:59:15;;;;;;;1.50;0.80;;;9.70;99.90;;;;;;5024792;28;20226;-81
2023/01/04 03:07:44;;;;;;;0.30;0.30;;;9.70;99.90;;;;;;5042733;28;20642;-80
2023/01/04 03:10:15;;;;;;;0.30;0.30;;;9.70;99.90;;;;;;5042625;28;20241;-80
2023/01/04 03:12:51;;;;;;;0.47;0.47;;;9.80;99.90;;;;;;5042831;28;20325;-80
2023/01/04 03:15:24;;;;;;;0.50;0.50;;;9.80;99.90;;;;;;5043060;28;20240;-81
2023/01/04 03:18:19;;;;;;;0.40;0.40;;;9.90;99.90;;;;;;5025419;28;20226;-81
2023/01/04 03:20:47;;;;;;;0.50;0.50;;;9.90;99.90;;;;;;5018554;28;20217;-80
2023/01/04 03:43:08;;;;;;;5.97;1.17;;;10.50;99.90;;;;;;5042293;28;20565;-80
2023/01/04 03:49:46;;;;;;;0.53;0.53;;;10.80;99.90;;;;;;5041580;28;20177;-81
2023/01/04 03:52:14;;;;;;;3.00;1.00;;;10.90;99.90;;;;;;5025031;28;20474;-81
2023/01/04 03:54:44;;;;;;;11.73;0.63;;;10.90;99.90;;;;;;5041861;28;20221;-82
2023/01/04 03:57:11;;;;;;;0.70;0.63;;;11.00;99.90;;;;;;5041006;28;20607;-83
2023/01/04 03:59:54;;;;;;;0.30;0.30;;;11.00;99.90;;;;;;5024078;28;20312;-81
2023/01/04 04:02:27;;;;;;;1.93;0.50;;;11.00;99.90;;;;;;5041901;28;20327;-81
2023/01/04 04:10:21;;;;;;;2.13;0.33;;;11.10;99.90;;;;;;5041702;28;20301;-81
2023/01/04 04:12:47;;;;;;;3.33;1.30;;;11.10;99.90;;;;;;5023483;28;20226;-82
2023/01/04 04:15:14;;;;;;;1.07;0.97;;;11.10;99.90;;;;;;5023960;28;20256;-81
2023/01/04 04:17:40;;;;;;;0.70;0.53;;;11.20;99.90;;;;;;5041142;28;20232;-80
2023/01/04 04:20:06;;;;;;;7.63;0.93;;;11.20;99.90;;;;;;5024075;28;20397;-81
2023/01/04 04:22:32;;;;;;;1.23;1.10;;;11.30;99.90;;;;;;5041797;28;20190;-81
2023/01/04 04:24:57;;;;;;;2.87;0.93;;;11.30;99.90;;;;;;5023755;28;20635;-81
2023/01/04 04:27:23;;;;;;;1.43;0.70;;;11.30;99.90;;;;;;5023700;28;20729;-82
2023/01/04 04:29:49;;;;;;;1.10;0.93;;;11.30;99.90;;;;;;5023628;28;20225;-81
2023/01/04 04:32:14;;;;;;;8.07;1.13;;;11.30;99.90;;;;;;5040797;28;20820;-81
2023/01/04 04:34:40;;;;;;;1.13;0.53;;;11.30;99.90;;;;;;5041710;28;20297;-80
2023/01/04 04:37:06;;;;;;;18.03;1.13;;;11.40;99.90;;;;;;5023742;28;20190;-82
2023/01/04 04:39:32;;;;;;;2.77;0.57;;;11.40;99.90;;;;;;5023608;28;20222;-83
2023/01/04 04:41:58;;;;;;;0.50;0.50;;;11.30;99.90;;;;;;5040968;28;20214;-82
2023/01/04 04:44:23;;;;;;;0.83;0.67;;;11.30;99.90;;;;;;5006339;28;20562;-82
2023/01/04 04:46:49;;;;;;;0.33;0.33;;;11.20;99.90;;;;;;5040769;28;20271;-81
2023/01/04 04:49:16;;;;;;;4.40;0.70;;;11.20;99.90;;;;;;5023997;28;20545;-81
2023/01/04 04:51:43;;;;;;;0.47;0.47;;;11.20;99.90;;;;;;5040628;28;20287;-82
2023/01/04 04:54:13;;;;;;;1.47;1.33;;;11.20;99.90;;;;;;5007508;28;20242;-82
2023/01/04 04:56:38;;;;;;;0.40;0.40;;;11.20;99.90;;;;;;5003044;28;20226;-81
2023/01/04 04:59:05;;;;;;;0.27;0.27;;;11.20;99.90;;;;;;5002749;28;20234;-82
2023/01/04 05:01:31;;;;;;;1.10;0.70;;;11.30;99.90;;;;;;5022953;28;20186;-82
2023/01/04 05:03:57;;;;;;;3.17;1.07;;;11.30;99.90;;;;;;5022728;28;20193;-81
2023/01/04 05:06:22;;;;;;;0.73;0.63;;;11.30;99.90;;;;;;5021933;28;21044;-82
2023/01/04 05:08:48;;;;;;;1.07;0.23;;;11.40;99.90;;;;;;5009487;28;20714;-81
2023/01/04 05:11:14;;;;;;;1.07;0.80;;;11.40;99.90;;;;;;4993471;28;20222;-81
2023/01/04 05:13:40;;;;;;;0.40;0.40;;;11.40;99.90;;;;;;5035633;28;20298;-81
2023/01/04 05:16:08;;;;;;;0.33;0.27;;;11.40;99.90;;;;;;5003066;28;20233;-80
2023/01/04 05:18:34;;;;;;;0.30;0.30;;;11.40;99.90;;;;;;5021136;28;20218;-81
2023/01/04 05:21:01;;;;;;;0.43;0.43;;;11.40;99.90;;;;;;5021841;28;20687;-81
2023/01/04 05:23:27;;;;;;;0.73;0.30;;;11.40;99.90;;;;;;5030593;28;20313;-81
2023/01/04 05:25:59;;;;;;;0.53;0.53;;;11.40;99.90;;;;;;4995316;28;20222;-81
2023/01/04 05:28:26;;;;;;;2.57;0.87;;;11.40;99.90;;;;;;5021208;28;20185;-80
2023/01/04 05:30:54;;;;;;;0.27;0.27;;;11.40;99.90;;;;;;5020324;28;20205;-82
2023/01/04 05:33:28;;;;;;;3.47;0.43;;;11.40;99.90;;;;;;5035430;28;20218;-81
2023/01/04 05:35:56;;;;;;;0.30;0.30;;;11.40;99.90;;;;;;5020706;28;20237;-80
2023/01/04 05:38:22;;;;;;;0.97;0.77;;;11.40;99.90;;;;;;5011933;28;20581;-81
2023/01/04 05:40:48;;;;;;;0.30;0.30;;;11.40;99.90;;;;;;5039789;28;20226;-81
2023/01/04 05:43:14;;;;;;;0.93;0.50;;;11.40;99.90;;;;;;5040843;28;20300;-80
2023/01/04 05:45:43;;;;;;;2.40;0.40;;;11.40;99.90;;;;;;5003073;28;20222;-81
2023/01/04 05:48:09;;;;;;;0.37;0.33;;;11.40;99.90;;;;;;5019412;28;20206;-81
2023/01/04 05:50:35;;;;;;;0.40;0.40;;;11.40;99.90;;;;;;5046327;28;20222;-82
2023/01/04 05:53:00;;;;;;;0.83;0.70;;;11.50;99.90;;;;;;5022411;28;20366;-81
2023/01/04 05:55:26;;;;;;;0.47;0.47;;;11.40;99.90;;;;;;5004685;28;20965;-81
2023/01/04 05:57:52;;;;;;;1.10;0.70;;;11.40;99.90;;;;;;5003009;28;20187;-81
2023/01/04 06:00:18;;;;;;;0.10;0.10;;;11.40;99.90;;;;;;5002858;28;20594;-81
2023/01/04 06:02:44;;;;;;;0.80;0.80;;;11.40;99.90;;;;;;5014564;28;20225;-82
2023/01/04 06:05:11;;;;;;;1.63;1.30;;;11.50;99.90;;;;;;5022021;28;20221;-83
2023/01/04 06:07:37;;;;;;;0.23;0.23;;;11.50;99.90;;;;;;5020114;28;20310;-81
2023/01/04 06:10:08;;;;;;;1.43;0.77;;;11.50;99.90;;;;;;5019881;28;20570;-81
2023/01/04 06:12:34;;;;;;;4.63;0.60;;;11.50;99.90;;;;;;5021418;28;20250;-80
2023/01/04 06:14:59;;;;;;;0.70;0.70;;;11.60;99.90;;;;;;5015672;28;20237;-80
2023/01/04 06:17:25;;;;;;;2.97;0.70;;;11.50;99.90;;;;;;4984481;28;21005;-83
2023/01/04 06:19:51;;;;;;;3.83;0.60;;;11.50;99.90;;;;;;5000536;28;20225;-80
2023/01/04 06:22:17;;;;;;;1.20;0.77;;;11.60;99.90;;;;;;5021778;28;20191;-79
2023/01/04 06:24:43;;;;;;;4.87;2.40;;;11.60;99.90;;;;;;5039557;28;20206;-80
2023/01/04 06:27:09;;;;;;;0.60;0.60;;;11.60;99.90;;;;;;5005007;28;21160;-79
2023/01/04 06:29:35;;;;;;;4.50;0.70;;;11.60;99.90;;;;;;5014405;28;20226;-81
2023/01/04 06:32:01;;;;;;;1.30;0.93;;;11.60;99.90;;;;;;5022746;28;20281;-81
2023/01/04 06:34:26;;;;;;;1.90;1.03;;;11.70;99.90;;;;;;4990595;28;20631;-80
2023/01/04 06:36:52;;;;;;;2.03;1.60;;;11.70;99.90;;;;;;5025873;28;20193;-78
2023/01/04 06:39:18;;;;;;;0.40;0.40;;;11.70;99.90;;;;;;5025220;28;20324;-79
2023/01/04 06:41:43;;;;;;;3.07;1.33;;;11.70;99.90;;;;;;5021438;28;20291;-80
2023/01/04 06:44:09;;;;;;;3.20;0.87;;;11.70;99.90;;;;;;4998784;28;20262;-79
2023/01/04 06:46:35;;;;;;;15.57;1.17;;;11.70;99.90;;;;;;5021961;28;20446;-79
2023/01/04 06:49:00;;;;;;;9.23;1.40;;;11.70;99.90;;;;;;5004997;28;20621;-80
2023/01/04 06:51:26;;;;;;;2.40;2.13;;;11.70;99.90;;;;;;5038001;28;20257;-82
2023/01/04 06:53:52;;;;;;;4.27;1.30;;;11.70;99.90;;;;;;5004340;28;20211;-80
2023/01/04 06:56:18;;;;;;;1.13;1.13;;;11.70;99.90;;;;;;5030976;28;20280;-79
2023/01/04 06:58:43;;;;;;;2.67;1.03;;;11.80;99.90;;;;;;5025092;28;20221;-80
2023/01/04 07:01:09;;;;;;;0.87;0.87;;;11.70;99.90;;;;;;5043158;28;20624;-79
2023/01/04 07:03:35;;;;;;;6.37;0.93;;;11.80;99.90;;;;;;5005271;28;20221;-79
2023/01/04 07:06:05;;;;;;;4.60;1.30;;;11.70;99.90;;;;;;5022793;28;20301;-79
2023/01/04 07:08:31;;;;;;;2.43;1.53;;;11.70;99.90;;;;;;5015202;28;20858;-81
2023/01/04 07:10:56;;;;;;;1.27;0.67;;;11.70;99.90;;;;;;5007565;28;20249;-80
2023/01/04 07:13:22;;;;;;;7.13;1.50;;;11.70;99.90;;;;;;5020286;28;20325;-80
2023/01/04 07:15:48;;;;;;;10.03;1.23;;;11.70;99.90;;;;;;5002246;28;20207;-81
2023/01/04 07:18:13;;;;;;;2.73;1.40;;;11.70;99.90;;;;;;5018421;28;20222;-80
2023/01/04 07:20:39;;;;;;;9.17;2.73;;;11.70;99.90;;;;;;5022119;28;20416;-79
2023/01/04 07:23:06;;;;;;;2.00;1.50;;;11.70;99.90;;;;;;5020129;28;20215;-80
2023/01/04 07:25:32;;;;;;;8.97;1.07;;;11.70;99.90;;;;;;5022489;28;20195;-80
2023/01/04 07:27:57;;;;;;;1.63;0.93;;;11.70;99.90;;;;;;5021044;28;20187;-80
2023/01/04 07:30:24;;;;;;;5.77;1.33;;;11.70;99.90;;;;;;5021900;28;20312;-82
2023/01/04 07:32:53;;;;;;;0.67;0.47;;;11.80;99.90;;;;;;5020767;28;20297;-79
2023/01/04 07:35:20;;;;;;;1.80;1.70;;;11.80;99.90;;;;;;5036666;28;20261;-79
2023/01/04 07:37:46;;;;;;;2.07;0.83;;;11.80;99.90;;;;;;5018225;28;20789;-80
2023/01/04 07:40:12;;;;;;;0.53;0.53;;;11.80;99.90;;;;;;5001371;28;20223;-81
2023/01/04 07:42:38;;;;;;;0.30;0.30;;;11.70;99.90;;;;;;5020366;28;20258;-81
2023/01/04 07:45:05;;;;;;;1.23;0.70;;;11.70;99.90;;;;;;4989924;28;20249;-81
2023/01/04 07:47:30;;;;;;;2.07;0.73;;;11.70;99.90;;;;;;4987918;28;20242;-79
2023/01/04 07:49:56;;;;;;;5.23;0.87;;;11.80;99.90;;;;;;5041831;28;20744;-80
2023/01/04 07:52:22;;;;;;;1.47;1.30;;;11.70;99.90;;;;;;4993671;28;20559;-80
2023/01/04 07:54:48;;;;;;;1.13;0.70;;;11.80;99.90;;;;;;5021171;28;20198;-80
2023/01/04 07:57:13;;;;;;;3.10;1.07;;;11.70;99.90;;;;;;5004378;28;20220;-80
2023/01/04 07:59:39;;;;;;;1.83;0.97;;;11.80;99.90;;;;;;5001818;28;20243;-79
2023/01/04 08:02:05;;;;;;;3.23;1.57;;;11.80;99.90;;;;;;5006937;28;20230;-78
2023/01/04 08:04:31;;;;;;;0.97;0.90;;;11.80;99.90;;;;;;5017432;28;20195;-78
2023/01/04 08:06:57;;;;;;;1.43;1.33;;;11.80;99.90;;;;;;5000136;28;20190;-79
2023/01/04 08:09:22;;;;;;;4.47;1.20;;;11.80;99.90;;;;;;5018064;28;20801;-81
2023/01/04 08:11:48;;;;;;;9.00;1.80;;;11.80;99.90;;;;;;4991172;28;20242;-80
2023/01/04 08:14:14;;;;;;;2.30;1.00;;;11.80;99.90;;;;;;5016435;28;20278;-80
2023/01/04 08:16:41;;;;;;;5.80;1.93;;;11.80;99.90;;;;;;5004058;28;20931;-79
2023/01/04 08:19:19;;;;;;;3.23;1.70;;;11.80;99.90;;;;;;5021200;28;20190;-80
2023/01/04 08:21:46;;;;;;;6.70;1.10;;;11.80;99.90;;;;;;5052845;28;20900;-80
2023/01/04 08:24:15;;;;;;;2.67;1.80;;;11.80;99.90;;;;;;5052307;28;20280;-79
2023/01/04 08:26:41;;;;;;;4.40;1.67;;;11.90;99.90;;;;;;5022215;28;20215;-83
2023/01/04 08:29:08;;;;;;;0.63;0.63;;;11.80;99.90;;;;;;5014427;28;20285;-82
2023/01/04 08:31:34;;;;;;;1.03;0.73;;;11.80;99.90;;;;;;4999291;28;20325;-82
2023/01/04 08:34:04;;;;;;;6.33;2.00;;;11.80;99.90;;;;;;4997603;28;20202;-81
2023/01/04 08:36:33;;;;;;;4.57;1.23;;;11.80;99.90;;;;;;5017906;28;20726;-82
2023/01/04 08:39:06;;;;;;;3.20;1.27;;;11.80;99.90;;;;;;5007099;28;20212;-82
2023/01/04 08:41:49;;;;;;;4.90;2.70;;;11.80;99.90;;;;;;5000895;28;20588;-83
2023/01/04 08:44:25;;;;;;;3.47;0.93;;;11.80;99.90;;;;;;5008677;28;20621;-82
2023/01/04 08:46:52;;;;;;;0.93;0.80;;;11.80;99.90;;;;;;5014558;28;20233;-82
2023/01/04 08:49:18;;;;;;;10.03;2.77;;;11.80;99.90;;;;;;5002264;28;20270;-82
2023/01/04 08:51:44;;;;;;;4.70;2.97;;;11.80;99.90;;;;;;5003431;28;20219;-83
2023/01/04 08:54:12;;;;;;;0.47;0.47;;;11.80;99.90;;;;;;5016966;28;20230;-84
2023/01/04 08:56:38;;;;;;;7.33;1.43;;;11.90;99.90;;;;;;5021357;28;20219;-81
2023/01/04 08:59:05;;;;;;;5.60;1.77;;;11.80;99.90;;;;;;4997188;28;20234;-83
2023/01/04 09:01:35;;;;;;;7.10;1.57;;;11.90;99.90;;;;;;5001544;28;20204;-81
2023/01/04 09:04:01;;;;;;;15.83;2.07;;;11.90;99.90;;;;;;5004756;28;20195;-81
2023/01/04 09:06:27;;;;;;;4.90;1.60;;;12.00;99.90;;;;;;5003292;28;20222;-82
2023/01/04 09:08:55;;;;;;;5.07;0.70;;;12.00;99.90;;;;;;5013137;28;20853;-82
2023/01/04 09:11:23;;;;;;;21.37;3.03;;;12.00;99.90;;;;;;5020840;28;20239;-81
2023/01/04 09:13:54;;;;;;;6.60;2.60;;;12.00;99.90;;;;;;5023444;28;20494;-85
2023/01/04 09:16:20;;;;;;;5.00;1.23;;;12.00;99.90;;;;;;5032989;28;20448;-83
2023/01/04 09:18:46;;;;;;;4.93;1.57;;;12.00;99.90;;;;;;5024543;28;20538;-84
2023/01/04 09:21:14;;;;;;;7.93;1.97;;;12.10;99.90;;;;;;5007745;28;20218;-83
2023/01/04 09:23:41;;;;;;;4.27;2.17;;;12.10;99.90;;;;;;5023079;28;20241;-84
2023/01/04 09:26:10;;;;;;;2.77;2.47;;;12.10;99.90;;;;;;4987085;28;20274;-83
2023/01/04 09:28:36;;;;;;;3.40;1.13;;;12.10;99.90;;;;;;5016391;28;20182;-84
2023/01/04 09:31:17;;;;;;;44.63;2.87;;;12.10;99.90;;;;;;5022407;28;20202;-87
2023/01/04 09:33:43;;;;;;;15.33;1.87;;;12.10;99.90;;;;;;5034936;28;20214;-84
2023/01/04 09:36:14;;;;;;;14.73;2.93;;;12.20;99.90;;;;;;5020822;28;20218;-83
2023/01/04 09:38:40;;;;;;;8.73;1.87;;;12.20;99.90;;;;;;5021278;28;20280;-84
2023/01/04 09:41:11;;;;;;;3.60;2.00;;;12.20;99.90;;;;;;5039211;28;20225;-84
2023/01/04 09:43:50;;;;;;;2.73;2.30;;;12.20;99.90;;;;;;5028547;28;20229;-84
2023/01/04 09:46:31;;;;;;;4.43;1.87;;;12.30;99.90;;;;;;5039884;28;20182;-84
2023/01/04 09:49:18;;;;;;;14.27;2.17;;;12.30;99.90;;;;;;5041110;28;20291;-84
2023/01/04 09:51:59;;;;;;;7.63;2.67;;;12.30;99.90;;;;;;5029211;28;20443;-85
2023/01/04 09:54:39;;;;;;;2.47;1.13;;;12.30;99.90;;;;;;5041241;28;20217;-84
2023/01/04 09:57:17;;;;;;;4.90;2.37;;;12.40;99.90;;;;;;5026224;28;20217;-83
2023/01/04 09:59:43;;;;;;;10.53;1.27;;;12.40;99.90;;;;;;5026690;28;20216;-83
2023/01/04 10:02:17;;;;;;;4.13;3.13;;;12.40;99.90;;;;;;5060893;28;20275;-84
2023/01/04 10:04:49;;;;;;;13.87;2.43;;;12.40;99.90;;;;;;5028854;28;20221;-85
2023/01/04 10:07:22;;;;;;;13.13;2.40;;;12.40;99.90;;;;;;5028317;28;20186;-84
2023/01/04 10:09:48;;;;;;;26.53;2.77;;;12.40;99.90;;;;;;5027089;28;20241;-85
2023/01/04 10:12:32;;;;;;;2.90;2.33;;;12.50;99.90;;;;;;5042025;28;20735;-83
2023/01/04 10:15:38;;;;;;;8.43;1.77;;;12.50;99.90;;;;;;5032952;28;20234;-85
2023/01/04 10:18:22;;;;;;;3.50;1.50;;;12.50;99.90;;;;;;5042770;28;20275;-82
2023/01/04 10:20:55;;;;;;;11.70;1.80;;;12.50;99.90;;;;;;5043846;28;20221;-84
2023/01/04 10:23:41;;;;;;;6.63;1.70;;;12.50;99.90;;;;;;5026359;28;20252;-83
2023/01/04 10:26:13;;;;;;;4.13;2.57;;;12.50;99.90;;;;;;5035238;28;20230;-83
2023/01/04 10:29:17;;;;;;;3.27;1.87;;;12.60;99.90;;;;;;5023750;28;20229;-85
2023/01/04 10:31:51;;;;;;;8.47;2.50;;;12.60;99.90;;;;;;5024658;28;20746;-83
2023/01/04 10:34:27;;;;;;;28.53;3.60;;;12.60;99.90;;;;;;5027368;28;20174;-83
2023/01/04 10:36:59;;;;;;;5.10;1.20;;;12.60;99.90;;;;;;5024572;28;20715;-83
2023/01/04 10:39:29;;;;;;;3.40;0.77;;;12.70;99.90;;;;;;5042132;28;20710;-85
2023/01/04 10:42:30;;;;;;;4.87;1.40;;;12.60;99.90;;;;;;5047140;28;20220;-84
2023/01/04 10:45:17;;;;;;;1.90;1.33;;;12.60;99.90;;;;;;4992851;28;20315;-84
2023/01/04 10:48:44;;;;;;;3.50;2.20;;;12.70;99.90;;;;;;5037177;28;20217;-84
2023/01/04 10:51:12;;;;;;;18.70;2.87;;;12.70;99.90;;;;;;4967328;28;20347;-86
2023/01/04 10:53:50;;;;;;;20.47;5.27;;;12.70;99.90;;;;;;4943664;28;20236;-82
2023/01/04 10:56:33;;;;;;;11.57;2.53;;;12.70;99.90;;;;;;5003843;28;20300;-84
2023/01/04 10:59:21;;;;;;;6.50;2.00;;;12.70;99.90;;;;;;5037348;28;20241;-82
2023/01/04 11:02:00;;;;;;;16.83;1.77;;;12.70;99.90;;;;;;5009760;28;20213;-83
2023/01/04 11:04:41;;;;;;;1.93;0.97;;;12.70;99.90;;;;;;5041894;28;20212;-84
2023/01/04 11:07:19;;;;;;;4.53;1.30;;;12.70;99.90;;;;;;5043123;28;20626;-83
2023/01/04 11:09:53;;;;;;;3.77;0.70;;;12.70;99.90;;;;;;5024211;28;20210;-83
2023/01/04 11:12:21;;;;;;;4.90;1.47;;;12.70;99.90;;;;;;5006035;28;20699;-83
2023/01/04 11:14:51;;;;;;;8.70;2.07;;;12.70;99.90;;;;;;5003691;28;21361;-83
2023/01/04 11:17:18;;;;;;;14.20;2.17;;;12.80;99.90;;;;;;5011941;28;20758;-83
2023/01/04 11:19:44;;;;;;;10.73;3.00;;;12.90;99.90;;;;;;5018456;28;20750;-82
2023/01/04 11:22:21;;;;;;;15.20;3.60;;;12.90;99.90;;;;;;4987132;28;20194;-83
2023/01/04 11:24:51;;;;;;;4.53;2.57;;;12.90;99.90;;;;;;5011478;28;20684;-83
2023/01/04 11:27:24;;;;;;;9.57;1.50;;;12.90;99.90;;;;;;5019855;28;20297;-83
2023/01/04 11:29:59;;;;;;;6.73;2.10;;;12.90;99.90;;;;;;5010793;28;20227;-85
2023/01/04 11:32:37;;;;;;;8.03;2.33;;;12.80;99.90;;;;;;5002050;28;20227;-84
2023/01/04 11:35:03;;;;;;;6.00;2.27;;;12.90;99.90;;;;;;5010765;28;20218;-84
2023/01/04 11:37:36;;;;;;;9.37;2.47;;;12.80;99.90;;;;;;5020599;28;20218;-84
2023/01/04 11:40:21;;;;;;;12.23;2.50;;;12.80;99.90;;;;;;5003555;28;20629;-84
2023/01/04 11:42:50;;;;;;;7.07;2.10;;;12.90;99.90;;;;;;5003626;28;21115;-84
2023/01/04 11:45:26;;;;;;;2.70;1.67;;;12.80;99.90;;;;;;5017189;28;20700;-81
2023/01/04 11:47:57;;;;;;;8.33;1.77;;;12.80;99.90;;;;;;4993039;28;20215;-83
2023/01/04 11:50:44;;;;;;;3.27;1.87;;;12.70;99.90;;;;;;5003453;28;20630;-82
2023/01/04 11:53:29;;;;;;;16.50;2.53;;;12.70;99.90;;;;;;5010968;28;20230;-83
2023/01/04 11:56:15;;;;;;;4.03;1.27;;;12.70;99.90;;;;;;5019210;28;20222;-84
2023/01/04 11:58:43;;;;;;;3.90;1.27;;;12.70;99.90;;;;;;5003145;28;20692;-83
2023/01/04 12:01:23;;;;;;;13.20;2.97;;;12.70;99.90;;;;;;5010664;28;20198;-82
2023/01/04 12:03:50;;;;;;;4.27;2.73;;;12.70;99.90;;;;;;5002488;28;20779;-84
2023/01/04 12:06:18;;;;;;;1.70;1.60;;;12.70;99.90;;;;;;5017647;28;20680;-83
2023/01/04 12:08:47;;;;;;;2.80;1.20;;;12.60;99.90;;;;;;5020959;28;20242;-84
2023/01/04 12:11:38;;;;;;;8.27;1.60;;;12.60;99.90;;;;;;5013115;28;20719;-81
2023/01/04 12:14:17;;;;;;;3.23;1.07;;;12.60;99.90;;;;;;5021325;28;20230;-82
2023/01/04 12:17:10;;;;;;;4.70;1.80;;;12.60;99.90;;;;;;5007799;28;20226;-82
2023/01/04 12:19:36;;;;;;;1.40;0.73;;;12.60;99.90;;;;;;5038943;28;20178;-84
2023/01/04 12:22:17;;;;;;;0.83;0.70;;;12.60;99.90;;;;;;4987711;28;20189;-82
2023/01/04 12:24:44;;;;;;;10.40;0.70;;;12.60;99.90;;;;;;5005140;28;20325;-83
2023/01/04 12:27:13;;;;;;;13.43;2.17;;;12.50;99.90;;;;;;5022449;28;20315;-83
2023/01/04 12:29:58;;;;;;;4.23;1.27;;;12.60;99.90;;;;;;5033361;28;20691;-82
2023/01/04 12:32:24;;;;;;;4.93;1.53;;;12.50;99.90;;;;;;5040188;28;20707;-83
2023/01/04 12:34:50;;;;;;;1.07;0.93;;;12.50;99.90;;;;;;5037391;28;20309;-82
2023/01/04 12:37:41;;;;;;;3.43;1.47;;;12.50;99.90;;;;;;5022663;28;20580;-83
2023/01/04 12:40:44;;;;;;;3.90;0.60;;;12.50;99.90;;;;;;5021789;28;20273;-82
2023/01/04 12:43:15;;;;;;;9.20;1.80;;;12.50;99.90;;;;;;5022968;28;20214;-83
2023/01/04 12:45:42;;;;;;;8.27;0.90;;;12.50;99.90;;;;;;5010619;28;20267;-86
2023/01/04 12:51:26;;;;;;;3.67;0.53;;;12.40;99.90;;;;;;5014061;28;20246;-85
2023/01/04 12:53:57;;;;;;;11.00;2.30;;;12.50;99.90;;;;;;5040388;28;20221;-83
2023/01/04 12:57:02;;;;;;;6.23;1.43;;;12.50;99.90;;;;;;5015741;28;20675;-84
2023/01/04 12:59:51;;;;;;;4.63;2.73;;;12.50;99.90;;;;;;5012397;28;20627;-85
2023/01/04 13:02:30;;;;;;;4.43;0.77;;;12.50;99.90;;;;;;5013846;28;20229;-83
2023/01/04 13:05:03;;;;;;;1.90;1.80;;;12.50;99.90;;;;;;5041686;28;20682;-83
2023/01/04 13:07:41;;;;;;;1.40;1.30;;;12.40;99.90;;;;;;5038903;28;20186;-84
2023/01/04 13:10:20;;;;;;;3.67;0.87;;;12.50;99.90;;;;;;5021471;28;20232;-83
2023/01/04 13:13:03;;;;;;;3.77;1.93;;;12.40;99.90;;;;;;5021417;28;20594;-83
2023/01/04 13:15:47;;;;;;;1.60;1.50;;;12.40;99.90;;;;;;5005581;28;20289;-85
2023/01/04 13:18:55;;;;;;;1.57;1.53;;;12.50;99.90;;;;;;5021596;28;20249;-86
2023/01/04 13:21:32;;;;;;;1.87;0.77;;;12.50;99.90;;;;;;5038529;28;20316;-84
2023/01/04 13:24:00;;;;;;;7.83;1.90;;;12.50;99.90;;;;;;5025165;28;20228;-84
2023/01/04 13:26:35;;;;;;;3.00;1.27;;;12.40;99.90;;;;;;5031479;28;20305;-84
2023/01/04 13:29:15;;;;;;;6.43;1.60;;;12.40;99.90;;;;;;5026416;28;20217;-84
2023/01/04 13:31:48;;;;;;;10.93;2.30;;;12.40;99.90;;;;;;5039306;28;20229;-85
2023/01/04 13:34:19;;;;;;;1.80;0.67;;;12.40;99.90;;;;;;5041451;28;20198;-84
2023/01/04 13:37:05;;;;;;;1.83;1.07;;;12.40;99.90;;;;;;5042006;28;20321;-83
2023/01/04 13:39:31;;;;;;;6.33;1.40;;;12.40;99.90;;;;;;5022504;28;20221;-84
2023/01/04 13:41:57;;;;;;;14.83;2.30;;;12.30;99.90;;;;;;5035335;28;20229;-83
2023/01/04 13:44:41;;;;;;;9.30;1.63;;;12.30;99.90;;;;;;5023956;28;20230;-83
2023/01/04 13:47:08;;;;;;;4.60;1.07;;;12.30;99.90;;;;;;5035890;28;20224;-84
2023/01/04 13:49:37;;;;;;;4.73;1.90;;;12.30;99.90;;;;;;5004236;28;20202;-84
2023/01/04 13:52:34;;;;;;;1.17;1.07;;;12.30;99.90;;;;;;5020652;28;20225;-83
2023/01/04 13:55:22;;;;;;;0.40;0.40;;;12.30;99.90;;;;;;5021393;28;20294;-82
2023/01/04 13:57:56;;;;;;;18.30;2.47;;;12.30;99.90;;;;;;5042082;28;20659;-84